KBLV/BLV METAR and TAF weather

Enter ICAO airport designator
Station Type Date Time Source
KBLV METAR 2021/09/28 16:56 UTC NOAA

KBLV 281656Z AUTO 00000KT 10SM CLR 29/17 A2994 RMK AO2 SLP138 T02870169 $


Station Type Date Time Source
KBLV Decoded METAR 2021/09/28 16:56 UTC NOAA

Belleville, Scott AFB/MidAmerica Airport, IL, United States (KBLV) 38-33N 089-51W
Sep 28, 2021 - 12:56 PM EDT / 2021.09.28 1656 UTC
Wind: Calm:0
Visibility: 10 mile(s):0
Sky conditions: clear
Temperature: 83.7 F (28.7 C)
Dew Point: 62.4 F (16.9 C)
Relative Humidity: 48%
Pressure (altimeter): 29.94 in. Hg (1013 hPa)
ob: KBLV 281656Z AUTO 00000KT 10SM CLR 29/17 A2994 RMK AO2 SLP138 T02870169
cycle: 17

Station Type Date Time Source
KBLV TAF 2021/09/28 16:03 UTC NOAA

TAF TAF KBLV 281600Z 2816/2922 VRB06KT 9999 SKC QNH2988INS TX29/2820Z TN18/2911Z

Example: see airport list